Time;durP1;ratioP1;P1;durP2;ratioP2;P2;SDS_P1;SDS_P2;PMS_P1;PMS_P2;Temp;Humidity;BMP_temperature;BMP_pressure;BME280_temperature;BME280_humidity;BME280_pressure;Samples;Min_cycle;Max_cycle;Signal;HPM_P1;HPM_P2
2023/12/29 00:02:26;;;;;;;3.30;2.80;;;;;;;9.01;100.00;100241.66;5026742;28;20073;-69
2023/12/29 00:04:54;;;;;;;5.03;2.70;;;;;;;9.02;100.00;100232.81;5024182;28;20049;-67
2023/12/29 00:07:24;;;;;;;3.90;2.95;;;;;;;8.96;100.00;100225.16;5029410;28;20466;-68
2023/12/29 00:09:51;;;;;;;3.25;2.83;;;;;;;9.03;100.00;100200.19;5020590;28;20080;-68
2023/12/29 00:12:19;;;;;;;3.25;2.90;;;;;;;9.17;100.00;100231.28;5031288;28;20473;-68
2023/12/29 00:14:48;;;;;;;4.80;3.30;;;;;;;9.15;100.00;100210.22;5029327;28;20042;-69
2023/12/29 00:17:17;;;;;;;3.17;2.70;;;;;;;9.26;100.00;100223.84;5025949;28;20579;-66
2023/12/29 00:19:45;;;;;;;5.20;3.00;;;;;;;9.21;100.00;100211.75;5024384;28;20375;-67
2023/12/29 00:22:13;;;;;;;3.17;2.70;;;;;;;9.28;100.00;100221.13;5028138;28;20490;-67
2023/12/29 00:24:42;;;;;;;4.00;3.03;;;;;;;9.25;100.00;100218.59;5034846;28;20052;-68
2023/12/29 00:27:10;;;;;;;2.75;2.55;;;;;;;9.19;100.00;100216.22;5033594;28;20131;-67
2023/12/29 00:29:38;;;;;;;4.20;2.80;;;;;;;9.12;100.00;100205.09;5025361;28;20072;-67
2023/12/29 00:32:06;;;;;;;3.13;2.45;;;;;;;9.06;100.00;100208.00;5031611;28;20494;-70
2023/12/29 00:34:34;;;;;;;5.13;2.72;;;;;;;9.09;100.00;100198.16;5033212;28;20092;-67
2023/12/29 00:37:02;;;;;;;3.58;2.42;;;;;;;9.07;100.00;100200.00;5031988;28;20046;-67
2023/12/29 00:39:38;;;;;;;3.10;2.50;;;;;;;9.10;100.00;100204.28;5026689;28;20124;-67
2023/12/29 00:42:08;;;;;;;2.75;2.17;;;;;;;9.14;100.00;100198.78;5035956;28;20038;-68
2023/12/29 00:44:36;;;;;;;3.20;2.25;;;;;;;9.14;100.00;100198.78;5041943;28;20063;-68
2023/12/29 00:47:04;;;;;;;2.88;2.10;;;;;;;9.09;100.00;100194.66;5039661;28;20045;-68
2023/12/29 00:49:32;;;;;;;3.22;2.45;;;;;;;9.05;100.00;100188.63;5026794;28;20052;-67
2023/12/29 00:52:00;;;;;;;3.10;2.58;;;;;;;9.06;100.00;100182.44;5036780;28;20052;-68
2023/12/29 00:54:27;;;;;;;3.35;2.38;;;;;;;8.91;100.00;100161.13;5032968;28;20429;-67
2023/12/29 00:56:57;;;;;;;3.03;2.22;;;;;;;8.97;100.00;100182.00;5029206;28;20045;-67
2023/12/29 00:59:26;;;;;;;3.13;2.28;;;;;;;8.95;100.00;100187.34;5019995;28;20133;-68
2023/12/29 01:01:54;;;;;;;3.58;2.33;;;;;;;9.00;100.00;100184.47;5028888;28;20037;-66
2023/12/29 01:04:22;;;;;;;2.45;2.10;;;;;;;8.92;100.00;100194.53;5032921;28;20052;-67
2023/12/29 01:06:50;;;;;;;3.35;2.30;;;;;;;8.92;100.00;100182.19;5029584;28;20041;-67
2023/12/29 01:09:18;;;;;;;3.13;2.17;;;;;;;8.91;100.00;100187.53;5024376;28;20076;-67
2023/12/29 01:11:45;;;;;;;4.95;2.20;;;;;;;8.90;100.00;100178.75;5029542;28;20326;-66
2023/12/29 01:14:13;;;;;;;4.55;2.42;;;;;;;8.87;100.00;100172.72;5033328;28;20052;-68
2023/12/29 01:16:43;;;;;;;2.38;2.10;;;;;;;8.78;100.00;100153.75;5030645;28;20076;-67
2023/12/29 01:19:11;;;;;;;2.40;2.20;;;;;;;8.85;100.00;100158.75;5021525;28;20239;-67
2023/12/29 01:21:39;;;;;;;3.17;2.03;;;;;;;8.69;100.00;100140.91;5030460;28;20125;-67
2023/12/29 01:24:07;;;;;;;2.13;1.92;;;;;;;8.85;100.00;100156.09;5033636;28;20036;-69
2023/12/29 01:26:37;;;;;;;2.53;2.20;;;;;;;8.88;100.00;100163.88;5031103;28;20045;-68
2023/12/29 01:29:06;;;;;;;2.72;2.38;;;;;;;8.71;100.00;100144.34;5022524;28;20041;-68
2023/12/29 01:31:34;;;;;;;3.30;2.22;;;;;;;8.79;100.00;100155.47;5027563;28;20045;-67
2023/12/29 01:34:04;;;;;;;3.05;2.22;;;;;;;8.73;100.00;100142.50;5032248;28;20099;-68
2023/12/29 01:36:32;;;;;;;4.13;2.40;;;;;;;8.81;100.00;100159.81;5029868;28;20041;-67
2023/12/29 01:39:02;;;;;;;3.72;2.28;;;;;;;8.79;100.00;100147.53;5026933;28;20522;-69
2023/12/29 01:41:31;;;;;;;2.80;2.40;;;;;;;8.85;100.00;100153.47;5030199;28;20128;-68
2023/12/29 01:44:21;;;;;;;4.25;2.42;;;;;;;8.76;100.00;100139.75;5036952;28;20040;-67
2023/12/29 01:46:51;;;;;;;4.93;2.10;;;;;;;8.86;100.00;100150.75;5036232;28;20069;-67
2023/12/29 01:49:21;;;;;;;4.38;2.50;;;;;;;8.89;100.00;100149.75;5028666;28;20132;-66
2023/12/29 01:51:50;;;;;;;;;;;;;;;8.87;100.00;100159.53;5029910;28;20050;-66
2023/12/29 01:54:19;;;;;;;4.40;2.47;;;;;;;8.89;100.00;100158.53;5030508;28;21308;-68
2023/12/29 01:56:49;;;;;;;4.38;2.10;;;;;;;8.89;100.00;100158.53;5030545;28;20038;-68
2023/12/29 01:59:17;;;;;;;3.72;2.20;;;;;;;8.92;100.00;100162.84;5018339;28;20129;-68
2023/12/29 02:01:54;;;;;;;3.00;2.20;;;;;;;8.94;100.00;100159.22;5027456;28;20098;-67
2023/12/29 02:04:25;;;;;;;4.13;2.22;;;;;;;9.05;100.00;100156.94;5028008;28;20042;-68
2023/12/29 02:06:54;;;;;;;3.97;2.00;;;;;;;9.01;100.00;100133.38;5028931;28;20144;-68
2023/12/29 02:09:22;;;;;;;3.20;2.30;;;;;;;9.16;100.00;100159.09;5020483;28;20597;-68
2023/12/29 02:11:50;;;;;;;6.43;2.05;;;;;;;9.11;100.00;100148.75;5029190;28;20494;-68
2023/12/29 02:14:19;;;;;;;3.33;1.83;;;;;;;9.14;100.00;100147.72;5044106;28;20052;-67
2023/12/29 02:16:56;;;;;;;3.80;2.15;;;;;;;8.97;100.00;100129.19;5028359;28;20059;-68
2023/12/29 02:19:40;;;;;;;4.40;2.13;;;;;;;9.12;100.00;100139.06;5021862;28;20053;-66
2023/12/29 02:22:09;;;;;;;2.58;2.00;;;;;;;9.15;100.00;100136.25;5034096;28;20053;-67
2023/12/29 02:24:39;;;;;;;2.72;1.75;;;;;;;9.08;100.00;100140.97;5045655;28;20037;-68
2023/12/29 02:27:24;;;;;;;4.88;2.05;;;;;;;9.06;100.00;100134.88;5030076;28;20324;-69
2023/12/29 02:30:03;;;;;;;2.83;1.83;;;;;;;9.03;100.00;100129.75;5020746;28;20045;-67
2023/12/29 02:32:33;;;;;;;3.33;1.80;;;;;;;9.05;100.00;100140.25;5029578;28;20041;-68
2023/12/29 02:35:02;;;;;;;2.37;1.90;;;;;;;8.99;100.00;100136.06;5024660;28;20092;-67
2023/12/29 02:37:32;;;;;;;2.03;1.60;;;;;;;8.91;100.00;100119.72;5027712;28;20118;-68
2023/12/29 02:40:00;;;;;;;3.28;2.13;;;;;;;9.02;100.00;100140.38;5020970;28;20041;-68
2023/12/29 02:42:30;;;;;;;4.13;2.28;;;;;;;9.01;100.00;100134.22;5027195;28;20050;-67
2023/12/29 02:44:58;;;;;;;3.95;1.90;;;;;;;8.88;100.00;100122.50;5028823;28;20050;-67
2023/12/29 02:47:26;;;;;;;2.65;1.80;;;;;;;8.93;100.00;100148.72;5029498;28;20140;-68
2023/12/29 02:49:54;;;;;;;2.10;1.90;;;;;;;8.91;100.00;100147.91;5024280;28;21328;-67
2023/12/29 02:52:22;;;;;;;3.42;1.92;;;;;;;8.87;100.00;100148.97;5031085;28;20045;-69
2023/12/29 02:54:50;;;;;;;3.20;1.67;;;;;;;8.84;100.00;100144.69;5027396;28;20052;-67
2023/12/29 02:57:18;;;;;;;3.38;1.80;;;;;;;8.81;100.00;100158.03;5030038;28;20037;-68
2023/12/29 02:59:47;;;;;;;4.68;2.15;;;;;;;8.84;100.00;100164.94;5021807;28;20099;-66
2023/12/29 03:02:15;;;;;;;3.17;2.03;;;;;;;8.72;100.00;100147.84;5025834;28;20261;-68
2023/12/29 03:04:42;;;;;;;4.50;2.08;;;;;;;8.79;100.00;100147.53;5028388;28;20044;-67
2023/12/29 03:07:11;;;;;;;2.45;1.90;;;;;;;8.86;100.00;100152.53;5029905;28;20043;-67
2023/12/29 03:09:38;;;;;;;4.25;1.95;;;;;;;8.73;100.00;100134.59;5023851;28;20116;-66
2023/12/29 03:12:07;;;;;;;4.05;1.73;;;;;;;8.77;100.00;100146.75;5032689;28;20159;-68
2023/12/29 03:14:35;;;;;;;4.22;1.92;;;;;;;8.83;100.00;100156.16;5029872;28;20454;-68
2023/12/29 03:17:04;;;;;;;4.43;2.30;;;;;;;8.74;100.00;100138.09;5027028;28;20103;-68
2023/12/29 03:19:32;;;;;;;2.92;2.13;;;;;;;8.72;100.00;100140.78;5021804;28;21121;-69
2023/12/29 03:22:00;;;;;;;4.47;2.20;;;;;;;8.71;100.00;100141.72;5032468;28;20046;-67
2023/12/29 03:24:29;;;;;;;3.72;1.80;;;;;;;8.69;100.00;100143.56;5030512;28;20041;-67
2023/12/29 03:26:57;;;;;;;3.47;1.92;;;;;;;8.70;100.00;100147.91;5031265;28;20518;-67
2023/12/29 03:29:25;;;;;;;5.25;2.33;;;;;;;8.67;100.00;100134.84;5022620;28;20053;-69
2023/12/29 03:31:53;;;;;;;3.22;2.10;;;;;;;8.68;100.00;100135.72;5025328;28;20052;-67
2023/12/29 03:34:23;;;;;;;4.15;2.20;;;;;;;8.64;100.00;100120.94;5026418;28;20046;-67
2023/12/29 03:36:50;;;;;;;5.32;2.17;;;;;;;8.68;100.00;100123.38;5025898;28;20060;-69
2023/12/29 03:39:18;;;;;;;4.90;2.03;;;;;;;8.72;100.00;100121.47;5026892;28;20037;-68
2023/12/29 03:41:46;;;;;;;3.03;1.80;;;;;;;8.68;100.00;100096.13;5021830;28;20061;-67
2023/12/29 03:44:15;;;;;;;3.35;2.10;;;;;;;8.81;100.00;100107.00;5028990;28;20057;-68
2023/12/29 03:46:43;;;;;;;3.28;1.90;;;;;;;8.77;100.00;100091.31;5021747;28;20349;-67
2023/12/29 03:49:11;;;;;;;3.30;1.70;;;;;;;8.78;100.00;100093.03;5024405;28;20446;-68
2023/12/29 03:51:40;;;;;;;3.72;1.98;;;;;;;8.78;100.00;100093.03;5025371;28;20557;-67
2023/12/29 03:54:09;;;;;;;5.35;2.03;;;;;;;8.80;100.00;100092.94;5031352;28;20401;-66
2023/12/29 03:56:39;;;;;;;4.45;1.95;;;;;;;8.78;100.00;100082.47;5030715;28;20048;-68
2023/12/29 03:59:07;;;;;;;;;;;;;;;8.80;100.00;100092.94;5028442;28;20049;-68
2023/12/29 04:01:35;;;;;;;3.80;1.70;;;;;;;8.84;100.00;100088.38;5020806;28;19929;-68
2023/12/29 04:04:03;;;;;;;4.78;1.80;;;;;;;8.84;100.00;100078.66;5030656;28;20033;-68
2023/12/29 04:06:31;;;;;;;5.65;1.90;;;;;;;8.89;100.00;100075.81;5025348;28;20042;-70
2023/12/29 04:09:01;;;;;;;6.18;1.90;;;;;;;8.89;100.00;100081.09;5031510;28;20056;-64
2023/12/29 04:11:28;;;;;;;3.00;1.90;;;;;;;8.87;100.00;100075.91;5029431;28;20049;-67
2023/12/29 04:13:57;;;;;;;7.88;2.17;;;;;;;8.85;100.00;100087.44;5033564;28;20069;-68
2023/12/29 04:16:25;;;;;;;4.57;1.88;;;;;;;8.86;100.00;100083.88;5029609;28;20132;-68
2023/12/29 04:18:52;;;;;;;2.00;1.77;;;;;;;8.83;100.00;100081.38;5032634;28;20048;-67
2023/12/29 04:21:20;;;;;;;4.10;1.80;;;;;;;8.81;100.00;100078.84;5022866;28;20045;-68
2023/12/29 04:23:48;;;;;;;4.53;2.00;;;;;;;8.84;100.00;100072.53;5032338;28;20045;-67
2023/12/29 04:26:18;;;;;;;6.28;2.03;;;;;;;8.75;100.00;100053.56;5031954;28;20050;-66
2023/12/29 04:28:46;;;;;;;3.30;1.83;;;;;;;8.78;100.00;100066.63;5028153;28;20386;-68
2023/12/29 04:31:13;;;;;;;2.85;1.60;;;;;;;8.73;100.00;100075.66;5027814;28;20033;-67
2023/12/29 04:33:41;;;;;;;3.83;1.90;;;;;;;8.68;100.00;100077.63;5033499;28;20421;-66
2023/12/29 04:36:09;;;;;;;5.00;2.05;;;;;;;8.66;100.00;100079.47;5029654;28;20069;-68
2023/12/29 04:38:37;;;;;;;4.28;1.88;;;;;;;8.65;100.00;100083.94;5031740;28;20050;-68
2023/12/29 04:41:05;;;;;;;5.50;1.90;;;;;;;8.68;100.00;100102.25;5020165;28;20136;-66
2023/12/29 04:43:35;;;;;;;4.43;2.33;;;;;;;8.66;100.00;100114.66;5034642;28;20049;-65
2023/12/29 04:46:03;;;;;;;2.33;1.52;;;;;;;8.65;100.00;100110.31;5030031;28;20037;-68
2023/12/29 04:48:30;;;;;;;6.03;1.95;;;;;;;8.62;100.00;100104.31;5030036;28;20810;-68
2023/12/29 04:50:58;;;;;;;3.90;1.83;;;;;;;8.69;100.00;100111.03;5028181;28;20077;-67
2023/12/29 04:53:26;;;;;;;3.05;1.77;;;;;;;8.73;100.00;100108.19;5037645;28;20077;-69
2023/12/29 04:55:54;;;;;;;5.57;1.58;;;;;;;8.79;100.00;100109.72;5029558;28;20041;-68
2023/12/29 04:58:22;;;;;;;5.13;1.70;;;;;;;8.78;100.00;100105.38;5029760;28;20049;-68
2023/12/29 05:00:51;;;;;;;2.75;1.70;;;;;;;8.78;100.00;100094.81;5023162;28;20045;-68
2023/12/29 05:03:19;;;;;;;2.85;1.70;;;;;;;8.84;100.00;100109.50;5032915;28;20056;-68
2023/12/29 05:05:47;;;;;;;3.00;1.55;;;;;;;8.86;100.00;100100.59;5028821;28;20041;-68
2023/12/29 05:08:15;;;;;;;3.83;1.80;;;;;;;8.90;100.00;100096.88;5031321;28;20054;-67
2023/12/29 05:10:43;;;;;;;4.38;1.60;;;;;;;8.91;100.00;100095.09;5025262;28;20346;-66
2023/12/29 05:13:11;;;;;;;5.00;1.90;;;;;;;8.86;100.00;100086.53;5029775;28;20117;-68
2023/12/29 05:15:39;;;;;;;3.05;1.73;;;;;;;8.88;100.00;100100.53;5027265;28;20037;-68
2023/12/29 05:18:08;;;;;;;2.30;1.52;;;;;;;8.86;100.00;100081.25;5027056;28;20049;-68
2023/12/29 05:20:36;;;;;;;4.63;1.60;;;;;;;8.81;100.00;100081.47;5022849;28;20052;-66
2023/12/29 05:23:04;;;;;;;3.28;1.92;;;;;;;8.79;100.00;100075.41;5028821;28;20410;-68
2023/12/29 05:25:32;;;;;;;4.55;1.67;;;;;;;8.88;100.00;100079.41;5026667;28;20051;-68
2023/12/29 05:28:00;;;;;;;2.15;1.52;;;;;;;8.84;100.00;100081.31;5029883;28;20045;-68
2023/12/29 05:30:31;;;;;;;2.45;1.75;;;;;;;8.77;100.00;100088.66;5029611;28;20064;-65
2023/12/29 05:32:59;;;;;;;3.28;1.92;;;;;;;8.76;100.00;100094.00;5030022;28;20044;-67
2023/12/29 05:35:28;;;;;;;5.05;1.92;;;;;;;8.80;100.00;100095.59;5032522;28;20068;-65
2023/12/29 05:37:56;;;;;;;1.88;1.67;;;;;;;8.82;100.00;100100.78;5034319;28;20033;-66
2023/12/29 05:40:24;;;;;;;8.00;2.00;;;;;;;8.81;100.00;100096.44;5028959;28;20099;-67
2023/12/29 05:42:52;;;;;;;3.10;1.60;;;;;;;8.85;100.00;100088.31;5025569;28;20051;-67
2023/12/29 05:45:19;;;;;;;2.50;1.70;;;;;;;8.86;100.00;100078.59;5033800;28;20076;-68
2023/12/29 05:47:47;;;;;;;5.93;1.88;;;;;;;8.84;100.00;100081.31;5031071;28;20049;-67
2023/12/29 05:50:15;;;;;;;6.38;1.83;;;;;;;8.70;100.00;100066.09;5028822;28;20096;-67
2023/12/29 05:52:44;;;;;;;2.25;1.60;;;;;;;8.83;100.00;100082.22;5027442;28;20099;-68
2023/12/29 05:55:12;;;;;;;4.22;1.77;;;;;;;8.79;100.00;100068.34;5031729;28;20446;-67
2023/12/29 05:57:40;;;;;;;3.30;1.60;;;;;;;8.84;100.00;100069.88;5032195;28;20560;-67
2023/12/29 06:00:14;;;;;;;2.78;1.83;;;;;;;8.89;100.00;100070.53;5026623;28;20426;-68
2023/12/29 06:02:42;;;;;;;2.65;1.60;;;;;;;8.95;100.00;100070.28;5027228;28;20045;-69
2023/12/29 06:05:11;;;;;;;3.40;1.60;;;;;;;8.98;100.00;100078.03;5037198;28;20105;-67
2023/12/29 06:07:39;;;;;;;3.15;1.77;;;;;;;9.02;100.00;100074.34;5038667;28;20088;-66
2023/12/29 06:10:10;;;;;;;2.33;1.30;;;;;;;9.07;100.00;100080.28;5025211;28;20113;-66
2023/12/29 06:12:37;;;;;;;4.47;1.88;;;;;;;9.10;100.00;100069.59;5015246;28;20195;-67
2023/12/29 06:15:06;;;;;;;2.88;1.67;;;;;;;9.09;100.00;100073.16;5029598;28;20585;-66
2023/12/29 06:17:35;;;;;;;3.03;1.95;;;;;;;9.12;100.00;100091.50;5027059;28;20045;-67
2023/12/29 06:20:05;;;;;;;2.38;1.75;;;;;;;9.11;100.00;100073.94;5032656;28;20060;-65
2023/12/29 06:22:33;;;;;;;3.15;1.70;;;;;;;9.10;100.00;100075.72;5025565;28;20054;-67
2023/12/29 06:25:01;;;;;;;2.05;1.83;;;;;;;8.98;100.00;100055.13;5035740;28;20042;-66
2023/12/29 06:27:32;;;;;;;4.28;1.85;;;;;;;9.12;100.00;100084.44;5040112;28;20076;-68
2023/12/29 06:30:00;;;;;;;5.70;1.92;;;;;;;9.14;100.00;100086.97;5037415;28;20049;-67
2023/12/29 06:32:28;;;;;;;2.97;1.60;;;;;;;9.08;100.00;100084.63;5030779;28;20052;-71
2023/12/29 06:34:56;;;;;;;4.03;1.80;;;;;;;9.09;100.00;100094.28;5042230;28;20048;-68
2023/12/29 06:37:24;;;;;;;3.13;1.67;;;;;;;9.14;100.00;100108.13;5038524;28;20083;-66
2023/12/29 06:39:52;;;;;;;3.55;1.88;;;;;;;9.01;100.00;100094.63;5037715;28;20061;-67
2023/12/29 06:42:20;;;;;;;4.82;1.90;;;;;;;9.06;100.00;100097.06;5031746;28;20057;-68
2023/12/29 06:44:49;;;;;;;3.85;1.92;;;;;;;9.11;100.00;100101.22;5038755;28;20072;-68
2023/12/29 06:47:17;;;;;;;3.15;1.70;;;;;;;9.16;100.00;100108.91;5039695;28;20057;-68
2023/12/29 06:49:45;;;;;;;3.70;1.88;;;;;;;9.12;100.00;100094.16;5035659;28;20052;-69
2023/12/29 06:52:13;;;;;;;4.30;2.03;;;;;;;9.17;100.00;100099.19;5023698;28;20490;-70
2023/12/29 06:54:41;;;;;;;3.17;1.73;;;;;;;9.09;100.00;100099.56;5032962;28;20114;-69
2023/12/29 06:57:09;;;;;;;2.03;1.60;;;;;;;9.23;100.00;100118.28;5030191;28;20049;-67
2023/12/29 06:59:37;;;;;;;2.30;1.80;;;;;;;9.12;100.00;100099.44;5023865;28;20483;-69
2023/12/29 07:02:06;;;;;;;5.50;1.90;;;;;;;9.24;100.00;100101.50;5023886;28;20045;-68
2023/12/29 07:04:34;;;;;;;4.15;2.17;;;;;;;9.25;100.00;100100.56;5034186;28;20037;-68
2023/12/29 07:07:02;;;;;;;3.15;2.00;;;;;;;9.33;100.00;100100.19;5032330;28;20034;-69
2023/12/29 07:09:30;;;;;;;2.92;1.77;;;;;;;9.41;100.00;100101.56;5032718;28;20061;-68
2023/12/29 07:11:57;;;;;;;3.72;1.90;;;;;;;9.48;100.00;100107.41;5026091;28;20041;-69
2023/12/29 07:14:25;;;;;;;3.85;1.92;;;;;;;9.53;100.00;100104.56;5031915;28;20091;-69
2023/12/29 07:16:53;;;;;;;4.38;1.92;;;;;;;9.56;100.00;100109.72;5035202;28;20041;-69
2023/12/29 07:19:22;;;;;;;3.78;1.95;;;;;;;9.60;100.00;100103.34;5047762;28;20065;-69
2023/12/29 07:21:50;;;;;;;2.92;2.00;;;;;;;9.63;100.00;100097.91;5023141;28;20043;-67
2023/12/29 07:24:18;;;;;;;2.60;2.20;;;;;;;9.53;100.00;100084.28;5036804;28;20037;-67
2023/12/29 07:26:46;;;;;;;4.47;2.17;;;;;;;9.66;100.00;100103.03;5046511;28;20044;-67
2023/12/29 07:29:14;;;;;;;2.65;1.83;;;;;;;9.70;100.00;100102.84;5046796;28;20052;-68
2023/12/29 07:31:41;;;;;;;3.92;2.50;;;;;;;9.75;100.00;100092.91;5033494;28;20064;-69
2023/12/29 07:34:10;;;;;;;4.22;2.00;;;;;;;9.83;100.00;100087.22;5037166;28;20383;-66
2023/12/29 07:36:40;;;;;;;3.25;2.00;;;;;;;9.84;100.00;100078.38;5043378;28;20033;-67
2023/12/29 07:39:09;;;;;;;2.65;1.90;;;;;;;9.80;100.00;100074.16;5036736;28;20568;-67
2023/12/29 07:41:40;;;;;;;4.05;1.95;;;;;;;9.76;100.00;100072.56;5031801;28;20099;-69
2023/12/29 07:44:08;;;;;;;5.00;2.05;;;;;;;9.83;100.00;100085.44;5035509;28;20053;-69
2023/12/29 07:46:36;;;;;;;4.07;1.88;;;;;;;9.84;100.00;100078.38;5041855;28;20063;-69
2023/12/29 07:49:04;;;;;;;4.10;2.00;;;;;;;9.81;100.00;100089.94;5042822;28;21494;-68
2023/12/29 07:51:32;;;;;;;4.47;1.92;;;;;;;9.78;100.00;100087.44;5030198;28;20573;-70
2023/12/29 07:54:02;;;;;;;6.30;2.10;;;;;;;9.85;100.00;100095.94;5033881;28;20055;-69
2023/12/29 07:56:30;;;;;;;4.57;1.65;;;;;;;9.88;100.00;100100.22;5037419;28;20107;-70
2023/12/29 07:58:58;;;;;;;3.20;1.90;;;;;;;9.87;100.00;100093.22;5038182;28;20128;-67
2023/12/29 08:01:25;;;;;;;6.13;1.92;;;;;;;9.76;100.00;100089.28;5031337;28;20053;-68
2023/12/29 08:03:53;;;;;;;3.90;1.80;;;;;;;9.87;100.00;100107.31;5027410;28;20612;-67
2023/12/29 08:06:22;;;;;;;3.97;1.80;;;;;;;9.94;100.00;100103.41;5035809;28;20049;-69
2023/12/29 08:08:50;;;;;;;3.67;1.80;;;;;;;9.97;100.00;100103.28;5040235;28;20072;-69
2023/12/29 08:11:19;;;;;;;2.88;1.67;;;;;;;9.96;100.00;100096.28;5039602;28;20095;-66
2023/12/29 08:13:48;;;;;;;3.58;1.77;;;;;;;9.89;100.00;100086.94;5030279;28;20048;-68
2023/12/29 08:16:18;;;;;;;5.25;2.00;;;;;;;9.93;100.00;100101.69;5038170;28;20053;-67
2023/12/29 08:18:47;;;;;;;4.00;1.90;;;;;;;9.92;100.00;100096.50;5039199;28;20097;-69
2023/12/29 08:21:20;;;;;;;3.47;1.77;;;;;;;9.89;100.00;100084.28;5035202;28;20051;-69
2023/12/29 08:23:49;;;;;;;3.10;1.38;;;;;;;10.02;100.00;100100.41;5032582;28;20068;-66
2023/12/29 08:26:18;;;;;;;5.03;1.92;;;;;;;10.06;100.00;100107.28;5037925;28;20575;-67
2023/12/29 08:28:46;;;;;;;4.15;1.63;;;;;;;10.10;100.00;100117.59;5039000;28;20494;-69
2023/12/29 08:31:14;;;;;;;3.58;1.58;;;;;;;9.99;100.00;100093.47;5036877;28;20041;-66
2023/12/29 08:33:42;;;;;;;3.35;1.65;;;;;;;10.11;100.00;100116.69;5033992;28;20042;-70
2023/12/29 08:36:10;;;;;;;3.90;1.60;;;;;;;10.10;100.00;100111.47;5036450;28;20079;-67
2023/12/29 08:38:38;;;;;;;3.00;1.90;;;;;;;10.21;100.00;100113.63;5033025;28;20391;-68
2023/12/29 08:41:05;;;;;;;3.28;1.58;;;;;;;10.29;100.00;100128.19;5035592;28;20498;-67
2023/12/29 08:43:36;;;;;;;7.85;1.67;;;;;;;10.30;100.00;100110.50;5029509;28;20056;-67
2023/12/29 08:46:04;;;;;;;5.70;2.00;;;;;;;10.25;100.00;100105.44;5034812;28;20052;-69
2023/12/29 08:48:32;;;;;;;3.90;1.55;;;;;;;10.32;100.00;100119.22;5035796;28;20044;-67
2023/12/29 08:50:59;;;;;;;3.72;1.65;;;;;;;10.31;100.00;100121.03;5032168;28;20056;-68
2023/12/29 08:53:27;;;;;;;4.20;1.50;;;;;;;10.30;100.00;100118.44;5024274;28;20049;-70
2023/12/29 08:55:55;;;;;;;5.18;1.60;;;;;;;10.26;100.00;100116.88;5032473;28;20482;-68
2023/12/29 08:58:23;;;;;;;3.03;1.50;;;;;;;10.30;100.00;100113.16;5030991;28;20056;-69
2023/12/29 09:00:52;;;;;;;2.75;1.42;;;;;;;10.19;100.00;100088.09;5029183;28;20053;-67
2023/12/29 09:03:21;;;;;;;4.20;1.42;;;;;;;10.35;100.00;100105.84;5027364;28;20041;-69
2023/12/29 09:05:48;;;;;;;6.53;2.20;;;;;;;10.42;100.00;100112.53;5027291;28;20276;-68
2023/12/29 09:08:16;;;;;;;3.70;1.92;;;;;;;10.36;100.00;100094.31;5033981;28;20057;-67
2023/12/29 09:10:44;;;;;;;1.50;1.30;;;;;;;10.44;100.00;100100.06;5029487;28;20128;-67
2023/12/29 09:13:12;;;;;;;5.65;1.27;;;;;;;10.53;100.00;100115.50;5025886;28;20064;-69
2023/12/29 09:15:40;;;;;;;5.15;1.98;;;;;;;10.52;100.00;100108.50;5028177;28;20437;-69
2023/12/29 09:18:10;;;;;;;3.72;1.30;;;;;;;10.49;100.00;100111.28;5031831;28;20036;-67
2023/12/29 09:20:38;;;;;;;2.63;1.30;;;;;;;10.51;100.00;100117.38;5029148;28;20037;-66
2023/12/29 09:23:05;;;;;;;4.43;1.42;;;;;;;10.46;100.00;100109.66;5023289;28;20843;-68
2023/12/29 09:25:33;;;;;;;3.65;1.20;;;;;;;10.48;100.00;100114.88;5032286;28;20054;-69
2023/12/29 09:28:01;;;;;;;3.53;1.60;;;;;;;10.51;100.00;100112.94;5032515;28;20124;-68
2023/12/29 09:30:29;;;;;;;5.15;1.50;;;;;;;10.50;100.00;100115.66;5043520;28;20462;-68
2023/12/29 09:32:57;;;;;;;4.10;1.50;;;;;;;10.56;100.00;100110.03;5023566;28;20140;-67
2023/12/29 09:35:26;;;;;;;4.90;1.70;;;;;;;10.58;100.00;100102.88;5029608;28;20095;-67
2023/12/29 09:37:54;;;;;;;3.70;1.40;;;;;;;10.49;100.00;100106.84;5033971;28;20072;-68
2023/12/29 09:40:22;;;;;;;3.85;1.23;;;;;;;10.45;100.00;100102.66;5029263;28;21189;-68
2023/12/29 09:42:50;;;;;;;3.13;1.20;;;;;;;10.59;100.00;100116.97;5021180;28;20041;-66
2023/12/29 09:45:24;;;;;;;4.35;1.38;;;;;;;10.55;100.00;100117.13;5029533;28;20064;-67
2023/12/29 09:47:53;;;;;;;5.88;1.30;;;;;;;10.53;100.00;100121.66;5034176;28;20341;-67
2023/12/29 09:50:22;;;;;;;4.60;1.35;;;;;;;10.51;100.00;100105.00;5032284;28;20450;-67
2023/12/29 09:52:51;;;;;;;4.10;1.58;;;;;;;10.59;100.00;100119.59;5019304;28;20033;-67
2023/12/29 09:55:20;;;;;;;5.95;1.52;;;;;;;10.59;100.00;100115.16;5032060;28;20049;-67
2023/12/29 09:57:49;;;;;;;2.58;1.17;;;;;;;10.54;100.00;100112.78;5032709;28;20229;-67
2023/12/29 10:00:17;;;;;;;3.72;1.35;;;;;;;10.45;100.00;100097.34;5035459;28;20178;-67
2023/12/29 10:02:45;;;;;;;2.78;1.10;;;;;;;10.55;100.00;100117.13;5023354;28;20061;-69
2023/12/29 10:05:13;;;;;;;3.47;1.10;;;;;;;10.55;100.00;100121.56;5025482;28;20537;-68
2023/12/29 10:07:44;;;;;;;3.75;1.65;;;;;;;10.60;100.00;100124.81;5030186;28;20033;-67
2023/12/29 10:10:15;;;;;;;;;;;;;;;10.62;100.00;100116.81;5042116;28;20057;-68
2023/12/29 10:12:45;;;;;;;2.63;1.17;;;;;;;10.54;100.00;100110.13;5023040;28;19999;-68
2023/12/29 10:15:18;;;;;;;4.60;1.85;;;;;;;10.61;100.00;100110.66;5031716;28;20051;-68
2023/12/29 10:17:57;;;;;;;4.45;1.05;;;;;;;10.58;100.00;100096.72;5029165;28;20083;-67
2023/12/29 10:20:38;;;;;;;3.97;1.33;;;;;;;10.68;100.00;100113.84;5026311;28;20049;-69
2023/12/29 10:23:12;;;;;;;2.50;1.23;;;;;;;10.61;100.00;100113.31;5018850;28;20034;-67
2023/12/29 10:25:42;;;;;;;4.93;1.30;;;;;;;10.67;100.00;100099.75;5030577;28;20029;-68
2023/12/29 10:28:11;;;;;;;3.17;1.60;;;;;;;10.72;100.00;100116.25;5028598;28;20092;-67
2023/12/29 10:30:40;;;;;;;3.38;1.20;;;;;;;10.69;100.00;100116.44;5031362;28;20056;-68
2023/12/29 10:33:08;;;;;;;3.38;1.33;;;;;;;10.71;100.00;100119.81;5022352;28;20120;-66
2023/12/29 10:35:37;;;;;;;5.05;1.83;;;;;;;10.66;100.00;100124.53;5030736;28;20056;-67
2023/12/29 10:38:12;;;;;;;4.35;1.80;;;;;;;10.63;100.00;100124.69;5031656;28;20037;-68
2023/12/29 10:40:43;;;;;;;3.28;1.58;;;;;;;10.62;100.00;100115.03;5035934;28;20076;-67
2023/12/29 10:43:11;;;;;;;1.60;1.35;;;;;;;10.59;100.00;100112.53;5021997;28;20045;-66
2023/12/29 10:45:39;;;;;;;2.53;1.00;;;;;;;10.54;100.00;100107.50;5033301;28;20047;-67
2023/12/29 10:48:07;;;;;;;3.80;1.00;;;;;;;10.45;100.00;100101.78;5028684;28;20037;-67
2023/12/29 10:50:44;;;;;;;3.70;1.67;;;;;;;10.48;100.00;100104.28;5028660;28;20037;-67
2023/12/29 10:53:13;;;;;;;3.30;1.20;;;;;;;10.62;100.00;100122.09;5018769;28;21866;-67
2023/12/29 10:55:42;;;;;;;3.47;1.20;;;;;;;10.55;100.00;100105.66;5029936;28;20045;-68
2023/12/29 10:58:10;;;;;;;3.95;1.00;;;;;;;10.74;100.00;100111.72;5034074;28;20045;-67
2023/12/29 11:00:38;;;;;;;4.43;1.27;;;;;;;10.81;100.00;100112.28;5028901;28;20049;-67
2023/12/29 11:03:06;;;;;;;1.65;1.20;;;;;;;10.79;100.00;100107.06;5022589;28;20509;-66
2023/12/29 11:05:35;;;;;;;3.22;1.05;;;;;;;10.84;100.00;100099.72;5025997;28;20052;-67
2023/12/29 11:08:16;;;;;;;1.63;1.20;;;;;;;10.89;100.00;100110.06;5032155;28;20049;-67
2023/12/29 11:10:46;;;;;;;5.05;1.40;;;;;;;10.89;100.00;100092.38;5030113;28;20065;-68
2023/12/29 11:13:14;;;;;;;2.53;1.42;;;;;;;10.87;100.00;100109.28;5021849;28;20045;-67
2023/12/29 11:15:47;;;;;;;3.20;1.05;;;;;;;10.85;100.00;100092.66;5030627;28;20041;-67
2023/12/29 11:18:16;;;;;;;2.63;1.60;;;;;;;10.93;100.00;100102.81;5031433;28;20060;-66
2023/12/29 11:20:46;;;;;;;4.15;1.02;;;;;;;10.77;100.00;100071.84;5027551;28;20042;-67
2023/12/29 11:23:14;;;;;;;4.85;1.63;;;;;;;10.89;100.00;100100.31;5028884;28;20038;-69
2023/12/29 11:25:44;;;;;;;4.65;1.40;;;;;;;10.89;100.00;100095.03;5031045;28;20060;-67
2023/12/29 11:28:14;;;;;;;;;;;;;;;10.94;100.00;100089.50;5033263;28;20236;-67
2023/12/29 11:30:42;;;;;;;3.88;1.38;;;;;;;10.91;100.00;100084.34;5027775;28;19932;-67
2023/12/29 11:33:16;;;;;;;5.55;2.08;;;;;;;10.98;100.00;100095.50;5024207;28;21351;-65